createdAt,value
2022-12-09T00:01:07.136Z,2.60
2022-12-09T00:03:35.672Z,2.50
2022-12-09T00:06:08.192Z,2.40
2022-12-09T00:08:36.706Z,2.50
2022-12-09T00:11:05.233Z,2.60
2022-12-09T00:13:33.563Z,2.70
2022-12-09T00:16:06.082Z,2.80
2022-12-09T00:18:34.338Z,2.80
2022-12-09T00:21:11.961Z,2.90
2022-12-09T00:23:40.029Z,3.00
2022-12-09T00:26:08.537Z,3.00
2022-12-09T00:28:36.836Z,3.00
2022-12-09T00:31:07.465Z,2.90
2022-12-09T00:33:36.634Z,2.80
2022-12-09T00:36:06.279Z,2.80
2022-12-09T00:38:35.116Z,2.80
2022-12-09T00:41:03.838Z,2.80
2022-12-09T00:43:32.454Z,2.80
2022-12-09T00:46:01.538Z,2.80
2022-12-09T00:48:34.512Z,2.70
2022-12-09T00:51:05.290Z,2.70
2022-12-09T00:53:33.985Z,2.70
2022-12-09T00:56:02.266Z,2.70
2022-12-09T00:58:30.996Z,2.80
2022-12-09T01:00:59.811Z,2.80
2022-12-09T01:03:28.448Z,2.80
2022-12-09T01:05:58.441Z,2.90
2022-12-09T01:08:26.627Z,2.90
2022-12-09T01:10:55.224Z,3.00
2022-12-09T01:13:23.352Z,2.90
2022-12-09T01:15:51.574Z,2.90
2022-12-09T01:18:19.828Z,2.60
2022-12-09T01:20:58.001Z,2.30
2022-12-09T01:23:26.780Z,2.10
2022-12-09T01:25:55.983Z,2.10
2022-12-09T01:28:24.676Z,2.10
2022-12-09T01:30:53.036Z,2.20
2022-12-09T01:33:21.606Z,2.20
2022-12-09T01:35:49.660Z,2.30
2022-12-09T01:38:19.634Z,2.40
2022-12-09T01:40:47.811Z,2.30
2022-12-09T01:43:18.662Z,2.30
2022-12-09T01:45:47.276Z,2.40
2022-12-09T01:48:16.689Z,2.40
2022-12-09T01:50:48.002Z,2.50
2022-12-09T01:53:18.112Z,2.40
2022-12-09T01:56:00.902Z,2.40
2022-12-09T01:58:29.895Z,2.30
2022-12-09T02:00:58.107Z,2.40
2022-12-09T02:03:27.036Z,2.30
2022-12-09T02:05:55.593Z,2.30
2022-12-09T02:08:24.216Z,2.40
2022-12-09T02:11:00.795Z,2.40
2022-12-09T02:13:53.182Z,2.50
2022-12-09T02:16:22.839Z,2.60
2022-12-09T02:18:56.606Z,2.60
2022-12-09T02:21:27.309Z,2.70
2022-12-09T02:23:59.386Z,2.70
2022-12-09T02:26:34.179Z,2.60
2022-12-09T02:29:26.432Z,2.50
2022-12-09T02:32:06.803Z,2.40
2022-12-09T02:34:38.831Z,2.30
2022-12-09T02:37:11.500Z,2.30
2022-12-09T02:39:45.301Z,2.40
2022-12-09T02:42:15.335Z,2.20
2022-12-09T02:44:44.559Z,2.00
2022-12-09T02:47:15.532Z,1.90
2022-12-09T02:49:47.907Z,1.90
2022-12-09T02:52:16.613Z,2.00
2022-12-09T02:54:45.286Z,2.10
2022-12-09T02:57:16.162Z,2.20
2022-12-09T02:59:45.646Z,2.30
2022-12-09T03:02:19.922Z,2.30
2022-12-09T03:04:55.239Z,2.40
2022-12-09T03:07:27.988Z,2.40
2022-12-09T03:09:59.819Z,2.40
2022-12-09T03:12:29.904Z,2.50
2022-12-09T03:14:59.071Z,2.50
2022-12-09T03:17:35.118Z,2.60
2022-12-09T03:20:08.259Z,2.60
2022-12-09T03:22:39.292Z,2.60
2022-12-09T03:25:09.908Z,2.60
2022-12-09T03:27:40.511Z,2.60
2022-12-09T03:30:10.082Z,2.70
2022-12-09T03:32:39.397Z,2.60
2022-12-09T03:35:11.400Z,2.60
2022-12-09T03:37:50.174Z,2.70
2022-12-09T03:40:20.259Z,2.70
2022-12-09T03:42:50.504Z,2.70
2022-12-09T03:45:19.136Z,2.80
2022-12-09T03:47:48.251Z,2.80
2022-12-09T03:50:16.604Z,2.80
2022-12-09T03:52:47.293Z,2.80
2022-12-09T03:55:20.522Z,2.90
2022-12-09T03:57:50.925Z,2.80
2022-12-09T04:00:19.580Z,2.80
2022-12-09T04:02:48.309Z,2.70
2022-12-09T04:05:17.217Z,2.70
2022-12-09T04:07:45.667Z,2.70
2022-12-09T04:10:14.360Z,2.70
2022-12-09T04:12:43.937Z,2.60
2022-12-09T04:15:12.743Z,2.60
2022-12-09T04:17:40.950Z,2.60
2022-12-09T04:20:10.181Z,2.60
2022-12-09T04:22:38.861Z,2.60
2022-12-09T04:25:08.224Z,2.60
2022-12-09T04:27:36.395Z,2.60
2022-12-09T04:30:07.506Z,2.60
2022-12-09T04:32:36.436Z,2.60
2022-12-09T04:35:04.764Z,2.50
2022-12-09T04:37:33.349Z,2.40
2022-12-09T04:40:01.509Z,2.40
2022-12-09T04:42:31.362Z,2.40
2022-12-09T04:44:59.485Z,2.40
2022-12-09T04:47:29.569Z,2.40
2022-12-09T04:49:57.810Z,2.40
2022-12-09T04:52:26.432Z,2.40
2022-12-09T04:54:55.122Z,2.40
2022-12-09T04:57:23.459Z,2.40
2022-12-09T04:59:51.972Z,2.40
2022-12-09T05:02:20.450Z,2.40
2022-12-09T05:04:50.816Z,2.40
2022-12-09T05:07:19.479Z,2.40
2022-12-09T05:09:48.724Z,2.40
2022-12-09T05:12:17.373Z,2.30
2022-12-09T05:14:45.935Z,2.30
2022-12-09T05:17:14.443Z,2.20
2022-12-09T05:19:43.121Z,2.20
2022-12-09T05:22:13.410Z,2.00
2022-12-09T05:24:43.996Z,2.00
2022-12-09T05:27:13.292Z,1.90
2022-12-09T05:29:41.857Z,2.00
2022-12-09T05:32:10.645Z,2.10
2022-12-09T05:34:39.592Z,2.10
2022-12-09T05:37:08.304Z,3.10
2022-12-09T05:39:38.071Z,1.90
2022-12-09T05:42:06.596Z,1.80
2022-12-09T05:44:35.012Z,1.70
2022-12-09T05:47:03.706Z,1.80
2022-12-09T05:49:33.131Z,1.80
2022-12-09T05:52:01.494Z,1.90
2022-12-09T05:54:30.985Z,1.90
2022-12-09T05:57:04.393Z,1.90
2022-12-09T05:59:33.361Z,1.90
2022-12-09T06:02:05.172Z,2.00
2022-12-09T06:04:40.214Z,2.10
2022-12-09T06:07:08.716Z,2.10
2022-12-09T06:09:37.992Z,2.00
2022-12-09T06:12:07.942Z,1.90
2022-12-09T06:14:37.093Z,1.90
2022-12-09T06:17:05.459Z,1.90
2022-12-09T06:19:34.254Z,1.80
2022-12-09T06:22:02.755Z,1.80
2022-12-09T06:24:32.050Z,1.70
2022-12-09T06:27:00.842Z,1.70
2022-12-09T06:29:30.734Z,1.70
2022-12-09T06:31:59.703Z,1.70
2022-12-09T06:34:30.576Z,1.70
2022-12-09T06:36:59.491Z,1.70
2022-12-09T06:39:27.894Z,1.60
2022-12-09T06:41:57.849Z,1.60
2022-12-09T06:44:26.316Z,1.60
2022-12-09T06:46:56.360Z,1.60
2022-12-09T06:49:25.480Z,1.60
2022-12-09T06:51:54.050Z,1.60
2022-12-09T06:54:23.089Z,1.60
2022-12-09T06:56:51.437Z,1.60
2022-12-09T06:59:20.598Z,1.60
2022-12-09T07:01:49.008Z,1.70
2022-12-09T07:04:19.653Z,1.70
2022-12-09T07:06:48.080Z,1.60
2022-12-09T07:09:18.022Z,1.60
2022-12-09T07:11:47.136Z,1.50
2022-12-09T07:14:16.858Z,1.50
2022-12-09T07:16:45.413Z,1.50
2022-12-09T07:19:16.975Z,1.60
2022-12-09T07:21:47.037Z,1.60
2022-12-09T07:24:16.139Z,1.60
2022-12-09T07:26:44.609Z,1.70
2022-12-09T07:29:12.845Z,1.70
2022-12-09T07:31:42.375Z,1.70
2022-12-09T07:34:11.734Z,1.80
2022-12-09T07:36:40.708Z,1.80
2022-12-09T07:39:13.390Z,1.90
2022-12-09T07:41:42.245Z,1.90
2022-12-09T07:44:11.168Z,1.90
2022-12-09T07:46:39.781Z,1.90
2022-12-09T07:49:08.357Z,1.80
2022-12-09T07:51:37.034Z,1.70
2022-12-09T07:54:05.508Z,1.60
2022-12-09T07:56:35.713Z,1.60
2022-12-09T07:59:07.159Z,1.50
2022-12-09T08:01:35.724Z,1.50
2022-12-09T08:04:06.285Z,1.50
2022-12-09T08:06:34.986Z,1.60
2022-12-09T08:09:06.071Z,1.60
2022-12-09T08:11:35.943Z,1.70
2022-12-09T08:14:11.048Z,1.70
2022-12-09T08:16:40.949Z,1.70
2022-12-09T08:19:10.602Z,1.80
2022-12-09T08:21:39.835Z,1.80
2022-12-09T08:24:08.984Z,1.70
2022-12-09T08:26:39.987Z,1.70
2022-12-09T08:29:10.060Z,1.70
2022-12-09T08:31:41.644Z,1.60
2022-12-09T08:34:11.272Z,1.60
2022-12-09T08:36:39.955Z,1.60
2022-12-09T08:39:09.318Z,1.60
2022-12-09T08:41:40.032Z,1.60
2022-12-09T08:44:10.602Z,1.60
2022-12-09T08:46:40.902Z,1.60
2022-12-09T08:49:10.107Z,1.50
2022-12-09T08:51:38.910Z,1.60
2022-12-09T08:54:07.756Z,1.60
2022-12-09T08:56:36.760Z,1.60
2022-12-09T08:59:06.797Z,1.60
2022-12-09T09:01:36.044Z,1.60
2022-12-09T09:04:06.331Z,1.60
2022-12-09T09:06:36.330Z,1.60
2022-12-09T09:09:05.831Z,1.70
2022-12-09T09:11:34.654Z,1.80
2022-12-09T09:14:04.394Z,1.70
2022-12-09T09:16:34.897Z,1.70
2022-12-09T09:19:06.143Z,1.70
2022-12-09T09:21:35.777Z,1.70
2022-12-09T09:24:08.718Z,1.70
2022-12-09T09:26:40.018Z,1.80
2022-12-09T09:29:09.168Z,1.80
2022-12-09T09:31:39.126Z,1.90
2022-12-09T09:34:08.389Z,1.90
2022-12-09T09:36:37.613Z,1.90
2022-12-09T09:39:06.112Z,1.80
2022-12-09T09:41:42.664Z,1.80
2022-12-09T09:44:16.701Z,1.80
2022-12-09T09:46:47.921Z,1.80
2022-12-09T09:49:18.907Z,1.90
2022-12-09T09:51:48.654Z,1.90
2022-12-09T09:54:17.462Z,1.90
2022-12-09T09:56:51.921Z,1.90
2022-12-09T09:59:22.269Z,1.90
2022-12-09T10:01:55.354Z,2.00
2022-12-09T10:04:28.743Z,1.90
2022-12-09T10:07:07.147Z,1.90
2022-12-09T10:09:41.459Z,1.90
2022-12-09T10:12:15.352Z,2.00
2022-12-09T10:14:46.132Z,1.90
2022-12-09T10:17:22.390Z,2.00
2022-12-09T10:19:52.073Z,2.00
2022-12-09T10:22:23.054Z,2.00
2022-12-09T10:24:54.501Z,2.00
2022-12-09T10:27:28.559Z,2.10
2022-12-09T10:29:59.091Z,2.10
2022-12-09T10:32:30.794Z,2.10
2022-12-09T10:34:59.526Z,2.10
2022-12-09T10:37:30.948Z,2.10
2022-12-09T10:40:03.159Z,2.10
2022-12-09T10:42:52.989Z,2.10
2022-12-09T10:45:23.899Z,2.10
2022-12-09T10:47:53.972Z,2.10
2022-12-09T10:50:28.231Z,2.10
2022-12-09T10:52:57.367Z,2.00
2022-12-09T10:55:28.563Z,2.00
2022-12-09T10:58:10.396Z,2.00
2022-12-09T11:00:39.007Z,2.00
2022-12-09T11:03:21.831Z,2.00
2022-12-09T11:05:56.362Z,2.00
2022-12-09T11:08:25.129Z,2.00
2022-12-09T11:10:53.788Z,2.00
2022-12-09T11:13:26.836Z,2.00
2022-12-09T11:15:59.470Z,2.00
2022-12-09T11:18:31.195Z,2.00
2022-12-09T11:21:00.974Z,2.00
2022-12-09T11:23:30.141Z,1.90
2022-12-09T11:26:00.295Z,1.90
2022-12-09T11:28:30.172Z,1.90
2022-12-09T11:33:52.302Z,2.00
2022-12-09T11:36:22.219Z,2.00
2022-12-09T11:38:52.438Z,2.00
2022-12-09T11:41:36.055Z,2.00
2022-12-09T11:44:14.172Z,2.00
2022-12-09T11:46:42.667Z,2.00
2022-12-09T11:49:16.321Z,2.00
2022-12-09T11:51:45.531Z,2.00
2022-12-09T11:54:16.538Z,2.00
2022-12-09T11:56:44.687Z,1.90
2022-12-09T11:59:14.283Z,1.90
2022-12-09T12:01:47.118Z,1.90
2022-12-09T12:04:18.634Z,2.00
2022-12-09T12:06:48.776Z,2.00
2022-12-09T12:09:20.460Z,2.00
2022-12-09T12:11:54.267Z,2.00
2022-12-09T12:14:25.363Z,2.00
2022-12-09T12:16:58.193Z,2.00
2022-12-09T12:19:30.056Z,2.00
2022-12-09T12:22:11.407Z,2.00
2022-12-09T12:24:51.368Z,2.10
2022-12-09T12:27:27.342Z,2.10
2022-12-09T12:29:58.166Z,2.20
2022-12-09T12:32:31.379Z,2.20
2022-12-09T12:35:11.397Z,2.20
2022-12-09T12:37:44.345Z,2.20
2022-12-09T12:40:26.357Z,2.10
2022-12-09T12:43:18.920Z,2.10
2022-12-09T12:46:07.179Z,2.10
2022-12-09T12:48:40.991Z,2.10
2022-12-09T12:51:16.527Z,2.10
2022-12-09T12:53:48.427Z,2.10
2022-12-09T12:56:18.051Z,2.20
2022-12-09T12:58:58.864Z,2.20
2022-12-09T13:01:30.125Z,2.20
2022-12-09T13:04:02.469Z,2.20
2022-12-09T13:06:36.070Z,2.20
2022-12-09T13:09:06.211Z,2.20
2022-12-09T13:11:37.451Z,2.10
2022-12-09T13:14:08.345Z,2.00
2022-12-09T13:16:39.107Z,2.10
2022-12-09T13:19:09.456Z,2.10
2022-12-09T13:21:39.051Z,2.10
2022-12-09T13:24:11.348Z,2.10
2022-12-09T13:26:42.407Z,2.10
2022-12-09T13:29:18.216Z,2.10
2022-12-09T13:31:49.823Z,2.00
2022-12-09T13:34:21.561Z,2.10
2022-12-09T13:36:51.084Z,2.10
2022-12-09T13:39:34.464Z,2.10
2022-12-09T13:42:20.235Z,2.10
2022-12-09T13:44:48.968Z,4.00
2022-12-09T13:47:25.428Z,2.20
2022-12-09T13:49:56.938Z,2.30
2022-12-09T13:52:45.993Z,2.20
2022-12-09T13:55:38.600Z,2.30
2022-12-09T13:58:20.546Z,2.20
2022-12-09T14:01:04.268Z,2.20
2022-12-09T14:03:34.013Z,2.20
2022-12-09T14:06:05.185Z,2.20
2022-12-09T14:08:37.559Z,2.20
2022-12-09T14:11:21.051Z,2.20
2022-12-09T14:13:50.917Z,2.30
2022-12-09T14:16:34.831Z,2.30
2022-12-09T14:19:21.793Z,2.30
2022-12-09T14:22:05.076Z,2.40
2022-12-09T14:24:35.332Z,2.40
2022-12-09T14:27:21.030Z,2.30
2022-12-09T14:29:52.456Z,2.30
2022-12-09T14:32:22.325Z,2.30
2022-12-09T14:34:59.979Z,2.30
2022-12-09T14:37:46.269Z,2.30
2022-12-09T14:40:22.174Z,2.40
2022-12-09T14:42:54.382Z,2.40
2022-12-09T14:45:30.307Z,2.40
2022-12-09T14:47:59.055Z,2.40
2022-12-09T14:50:28.581Z,2.40
2022-12-09T14:52:59.049Z,2.40
2022-12-09T14:55:27.970Z,2.40
2022-12-09T14:57:56.789Z,2.40
2022-12-09T15:00:34.314Z,2.40
2022-12-09T15:03:31.517Z,2.40
2022-12-09T15:06:13.465Z,2.40
2022-12-09T15:08:42.686Z,2.40
2022-12-09T15:11:13.004Z,2.40
2022-12-09T15:13:42.467Z,2.40
2022-12-09T15:16:13.423Z,2.50
2022-12-09T15:18:42.762Z,2.50
2022-12-09T15:21:11.143Z,2.50
2022-12-09T15:23:41.031Z,2.60
2022-12-09T15:26:10.803Z,2.70
2022-12-09T15:28:38.910Z,2.70
2022-12-09T15:31:07.869Z,2.60
2022-12-09T15:33:42.134Z,2.60
2022-12-09T15:36:12.205Z,2.70
2022-12-09T15:38:42.367Z,2.60
2022-12-09T15:41:28.288Z,2.60
2022-12-09T15:43:58.803Z,2.60
2022-12-09T15:46:27.796Z,2.70
2022-12-09T15:48:58.581Z,2.70
2022-12-09T15:51:27.763Z,2.70
2022-12-09T15:53:57.496Z,2.70
2022-12-09T15:56:27.778Z,2.70
2022-12-09T15:58:58.395Z,2.70
2022-12-09T16:01:27.490Z,2.80
2022-12-09T16:03:57.606Z,2.80
2022-12-09T16:06:28.614Z,2.80
2022-12-09T16:08:56.704Z,2.80
2022-12-09T16:11:38.113Z,2.80
2022-12-09T16:14:06.913Z,2.80
2022-12-09T16:16:37.673Z,2.80
2022-12-09T16:19:07.200Z,2.90
2022-12-09T16:21:35.847Z,2.90
2022-12-09T16:24:08.424Z,2.90
2022-12-09T16:26:37.167Z,2.90
2022-12-09T16:29:07.014Z,2.90
2022-12-09T16:31:35.115Z,2.90
2022-12-09T16:34:03.723Z,2.90
2022-12-09T16:36:46.643Z,2.90
2022-12-09T16:39:38.282Z,2.90
2022-12-09T16:42:20.306Z,2.90
2022-12-09T16:44:50.935Z,2.90
2022-12-09T16:47:20.840Z,2.90
2022-12-09T16:49:49.743Z,3.00
2022-12-09T16:52:19.216Z,3.00
2022-12-09T16:54:50.160Z,3.10
2022-12-09T16:57:19.583Z,3.10
2022-12-09T16:59:48.148Z,3.10
2022-12-09T17:02:19.209Z,3.10
2022-12-09T17:04:48.680Z,3.20
2022-12-09T17:07:16.798Z,3.20
2022-12-09T17:09:45.108Z,3.20
2022-12-09T17:12:14.792Z,3.30
2022-12-09T17:14:42.847Z,3.30
2022-12-09T17:17:11.767Z,3.30
2022-12-09T17:19:41.397Z,3.30
2022-12-09T17:22:10.035Z,3.30
2022-12-09T17:24:38.087Z,3.30
2022-12-09T17:27:06.338Z,3.30
2022-12-09T17:29:37.199Z,3.30
2022-12-09T17:32:05.628Z,3.30
2022-12-09T17:34:33.857Z,3.30
2022-12-09T17:37:01.894Z,3.30
2022-12-09T17:39:30.121Z,3.30
2022-12-09T17:41:58.137Z,3.30
2022-12-09T17:44:26.236Z,3.30
2022-12-09T17:46:55.640Z,3.30
2022-12-09T17:49:23.828Z,3.30
2022-12-09T17:51:52.249Z,3.30
2022-12-09T17:54:20.291Z,3.30
2022-12-09T17:56:48.304Z,3.30
2022-12-09T17:59:16.855Z,3.30
2022-12-09T18:01:46.209Z,3.30
2022-12-09T18:04:15.760Z,3.30
2022-12-09T18:06:45.184Z,3.30
2022-12-09T18:09:14.296Z,3.30
2022-12-09T18:11:42.374Z,3.30
2022-12-09T18:14:10.655Z,3.30
2022-12-09T18:16:38.891Z,3.30
2022-12-09T18:19:09.791Z,3.30
2022-12-09T18:21:39.533Z,3.30
2022-12-09T18:24:07.908Z,3.30
2022-12-09T18:26:41.348Z,3.30
2022-12-09T18:29:10.035Z,3.30
2022-12-09T18:31:38.471Z,3.40
2022-12-09T18:34:06.631Z,3.40
2022-12-09T18:36:34.672Z,3.40
2022-12-09T18:39:04.317Z,3.40
2022-12-09T18:41:32.751Z,3.30
2022-12-09T18:44:02.313Z,3.30
2022-12-09T18:46:32.558Z,3.40
2022-12-09T18:49:02.242Z,3.30
2022-12-09T18:51:31.207Z,3.40
2022-12-09T18:53:59.655Z,3.30
2022-12-09T18:56:29.190Z,3.40
2022-12-09T18:59:07.070Z,3.30
2022-12-09T19:01:39.200Z,3.30
2022-12-09T19:04:09.553Z,3.30
2022-12-09T19:06:39.974Z,3.30
2022-12-09T19:09:08.926Z,3.30
2022-12-09T19:11:39.044Z,3.30
2022-12-09T19:14:08.286Z,3.30
2022-12-09T19:16:36.677Z,3.40
2022-12-09T19:19:09.424Z,3.40
2022-12-09T19:21:38.643Z,3.40
2022-12-09T19:24:07.300Z,3.50
2022-12-09T19:26:36.314Z,3.40
2022-12-09T19:29:06.583Z,3.30
2022-12-09T19:31:36.669Z,3.30
2022-12-09T19:34:05.829Z,3.20
2022-12-09T19:36:34.361Z,3.10
2022-12-09T19:39:02.763Z,3.10
2022-12-09T19:41:30.807Z,3.10
2022-12-09T19:43:59.251Z,3.10
2022-12-09T19:46:29.313Z,3.10
2022-12-09T19:48:57.964Z,3.00
2022-12-09T19:51:27.087Z,3.10
2022-12-09T19:53:55.795Z,3.10
2022-12-09T19:56:24.305Z,3.10
2022-12-09T19:58:52.739Z,3.10
2022-12-09T20:01:21.839Z,3.00
2022-12-09T20:03:52.092Z,3.00
2022-12-09T20:06:21.297Z,3.00
2022-12-09T20:08:49.959Z,3.10
2022-12-09T20:11:19.452Z,3.10
2022-12-09T20:13:47.717Z,3.10
2022-12-09T20:16:16.592Z,3.20
2022-12-09T20:18:45.376Z,3.20
2022-12-09T20:21:15.227Z,3.20
2022-12-09T20:23:43.980Z,3.30
2022-12-09T20:26:12.959Z,3.30
2022-12-09T20:28:41.755Z,3.20
2022-12-09T20:31:10.938Z,3.20
2022-12-09T20:33:39.094Z,3.20
2022-12-09T20:36:07.926Z,3.20
2022-12-09T20:38:37.384Z,3.20
2022-12-09T20:41:06.867Z,3.20
2022-12-09T20:43:39.411Z,3.20
2022-12-09T20:46:08.697Z,3.20
2022-12-09T20:48:37.278Z,3.20
2022-12-09T20:51:06.320Z,3.20
2022-12-09T20:53:34.372Z,3.30
2022-12-09T20:56:04.518Z,3.30
2022-12-09T20:58:32.649Z,3.30
2022-12-09T21:01:05.562Z,3.30
2022-12-09T21:03:33.708Z,3.30
2022-12-09T21:06:02.058Z,3.40
2022-12-09T21:08:31.959Z,3.30
2022-12-09T21:11:05.019Z,3.30
2022-12-09T21:13:33.631Z,3.20
2022-12-09T21:16:05.800Z,3.20
2022-12-09T21:18:34.319Z,3.20
2022-12-09T21:21:02.404Z,3.20
2022-12-09T21:23:34.626Z,3.20
2022-12-09T21:26:05.503Z,3.20
2022-12-09T21:28:33.634Z,3.30
2022-12-09T21:31:06.979Z,3.30
2022-12-09T21:33:35.453Z,3.30
2022-12-09T21:36:05.646Z,3.30
2022-12-09T21:38:34.020Z,3.30
2022-12-09T21:41:02.905Z,3.30
2022-12-09T21:43:32.345Z,3.30
2022-12-09T21:46:02.439Z,3.30
2022-12-09T21:48:30.559Z,3.20
2022-12-09T21:50:59.383Z,3.20
2022-12-09T21:53:27.423Z,3.20
2022-12-09T21:55:55.668Z,3.10
2022-12-09T21:58:23.726Z,3.00
2022-12-09T22:00:53.179Z,3.00
2022-12-09T22:03:21.223Z,3.00
2022-12-09T22:05:52.562Z,3.00
2022-12-09T22:08:23.205Z,3.10
2022-12-09T22:10:51.239Z,3.20
2022-12-09T22:13:19.634Z,3.20
2022-12-09T22:15:47.641Z,3.30
2022-12-09T22:18:17.056Z,3.30
2022-12-09T22:21:15.964Z,3.30
2022-12-09T22:23:33.346Z,3.40
2022-12-09T22:26:04.457Z,3.40
2022-12-09T22:28:32.909Z,3.40
2022-12-09T22:31:01.099Z,3.40
2022-12-09T22:33:30.511Z,3.40
2022-12-09T22:36:02.771Z,3.40
2022-12-09T22:38:30.825Z,3.40
2022-12-09T22:41:02.867Z,3.50
2022-12-09T22:43:35.073Z,3.40
2022-12-09T22:46:06.841Z,3.50
2022-12-09T22:48:36.666Z,3.50
2022-12-09T22:51:05.623Z,3.50
2022-12-09T22:53:34.444Z,3.50
2022-12-09T22:56:02.700Z,3.50
2022-12-09T22:58:30.761Z,3.50
2022-12-09T23:00:59.251Z,3.50
2022-12-09T23:03:27.268Z,3.50
2022-12-09T23:05:57.553Z,3.50
2022-12-09T23:08:25.843Z,3.50
2022-12-09T23:10:55.036Z,3.40
2022-12-09T23:13:24.368Z,3.40
2022-12-09T23:15:52.817Z,3.40
2022-12-09T23:18:21.401Z,3.40
2022-12-09T23:20:49.415Z,3.40
2022-12-09T23:23:19.795Z,3.40
2022-12-09T23:25:47.963Z,3.40
2022-12-09T23:28:16.376Z,3.40
2022-12-09T23:30:44.558Z,3.40
2022-12-09T23:33:13.315Z,3.40
2022-12-09T23:35:41.460Z,3.50
2022-12-09T23:38:09.902Z,3.50
2022-12-09T23:40:39.304Z,3.50
2022-12-09T23:43:07.916Z,3.50
2022-12-09T23:45:35.961Z,3.50
2022-12-09T23:48:04.260Z,3.40
2022-12-09T23:50:32.591Z,3.40
2022-12-09T23:53:00.599Z,3.30
2022-12-09T23:55:29.162Z,3.30
2022-12-09T23:57:58.548Z,3.30
